createdAt,value
2023-04-07T00:00:32.783Z,14.59
2023-04-07T00:01:33.000Z,14.63
2023-04-07T00:02:33.197Z,14.60
2023-04-07T00:03:33.282Z,14.59
2023-04-07T00:04:33.448Z,14.61
2023-04-07T00:05:33.740Z,14.62
2023-04-07T00:06:33.692Z,14.63
2023-04-07T00:07:37.337Z,14.62
2023-04-07T00:08:34.875Z,14.64
2023-04-07T00:09:33.850Z,14.64
2023-04-07T00:10:33.850Z,14.67
2023-04-07T00:11:33.845Z,14.66
2023-04-07T00:12:33.830Z,14.67
2023-04-07T00:13:33.840Z,14.67
2023-04-07T00:14:33.838Z,14.69
2023-04-07T00:15:33.855Z,14.69
2023-04-07T00:16:33.825Z,14.67
2023-04-07T00:17:33.839Z,14.68
2023-04-07T00:18:33.806Z,14.69
2023-04-07T00:19:33.809Z,14.69
2023-04-07T00:20:33.854Z,14.72
2023-04-07T00:21:33.875Z,14.69
2023-04-07T00:22:33.883Z,14.72
2023-04-07T00:23:33.873Z,14.74
2023-04-07T00:24:34.794Z,14.71
2023-04-07T00:25:33.898Z,14.73
2023-04-07T00:26:33.935Z,14.72
2023-04-07T00:27:33.948Z,14.70
2023-04-07T00:28:33.982Z,14.71
2023-04-07T00:29:33.984Z,14.69
2023-04-07T00:30:34.047Z,14.71
2023-04-07T00:31:34.084Z,14.69
2023-04-07T00:32:35.306Z,14.69
2023-04-07T00:33:34.100Z,14.72
2023-04-07T00:34:34.121Z,14.71
2023-04-07T00:35:34.180Z,14.69
2023-04-07T00:36:34.204Z,14.73
2023-04-07T00:37:34.251Z,14.69
2023-04-07T00:38:34.323Z,14.71
2023-04-07T00:39:34.385Z,14.71
2023-04-07T00:40:34.440Z,14.72
2023-04-07T00:41:34.435Z,14.72
2023-04-07T00:42:34.494Z,14.75
2023-04-07T00:43:34.508Z,14.78
2023-04-07T00:44:34.549Z,14.76
2023-04-07T00:45:34.589Z,14.77
2023-04-07T00:46:34.689Z,14.77
2023-04-07T00:47:34.691Z,14.78
2023-04-07T00:48:34.737Z,14.79
2023-04-07T00:49:34.756Z,14.80
2023-04-07T00:50:34.812Z,14.81
2023-04-07T00:51:34.893Z,14.80
2023-04-07T00:52:34.850Z,14.81
2023-04-07T00:53:34.878Z,14.83
2023-04-07T00:54:34.903Z,14.82
2023-04-07T00:55:34.956Z,14.83
2023-04-07T00:56:34.993Z,14.84
2023-04-07T00:57:35.040Z,14.84
2023-04-07T00:58:35.083Z,14.85
2023-04-07T00:59:35.115Z,14.87
2023-04-07T01:00:35.142Z,14.86
2023-04-07T01:01:35.228Z,14.87
2023-04-07T01:02:35.424Z,14.87
2023-04-07T01:03:35.359Z,14.86
2023-04-07T01:04:35.358Z,14.87
2023-04-07T01:05:35.245Z,14.85
2023-04-07T01:06:35.262Z,14.87
2023-04-07T01:07:35.312Z,14.88
2023-04-07T01:08:35.300Z,14.89
2023-04-07T01:09:35.334Z,14.90
2023-04-07T01:10:35.397Z,14.90
2023-04-07T01:11:35.401Z,14.89
2023-04-07T01:12:35.404Z,14.90
2023-04-07T01:13:35.446Z,14.90
2023-04-07T01:14:35.460Z,14.89
2023-04-07T01:15:35.499Z,14.89
2023-04-07T01:16:35.602Z,14.89
2023-04-07T01:17:35.551Z,14.91
2023-04-07T01:18:35.534Z,14.93
2023-04-07T01:19:35.581Z,14.91
2023-04-07T01:20:35.616Z,14.92
2023-04-07T01:21:35.678Z,14.91
2023-04-07T01:22:35.699Z,14.91
2023-04-07T01:23:35.751Z,14.92
2023-04-07T01:24:35.734Z,14.92
2023-04-07T01:25:35.802Z,14.92
2023-04-07T01:26:35.808Z,14.93
2023-04-07T01:27:35.850Z,14.93
2023-04-07T01:28:35.866Z,14.94
2023-04-07T01:29:35.886Z,14.95
2023-04-07T01:30:35.929Z,14.94
2023-04-07T01:31:35.963Z,14.96
2023-04-07T01:32:36.062Z,14.95
2023-04-07T01:33:36.714Z,14.94
2023-04-07T01:34:36.038Z,14.97
2023-04-07T01:35:36.076Z,14.96
2023-04-07T01:36:36.128Z,14.95
2023-04-07T01:37:36.134Z,14.97
2023-04-07T01:38:36.173Z,14.97
2023-04-07T01:39:36.206Z,14.98
2023-04-07T01:40:36.212Z,14.98
2023-04-07T01:41:36.250Z,14.99
2023-04-07T01:42:36.322Z,14.97
2023-04-07T01:43:36.301Z,14.98
2023-04-07T01:44:36.354Z,14.98
2023-04-07T01:45:36.381Z,14.97
2023-04-07T01:46:36.380Z,14.99
2023-04-07T01:47:36.565Z,14.99
2023-04-07T01:48:36.452Z,14.98
2023-04-07T01:49:36.441Z,15.00
2023-04-07T01:50:36.487Z,15.01
2023-04-07T01:51:36.506Z,14.98
2023-04-07T01:52:36.528Z,14.99
2023-04-07T01:53:36.608Z,14.99
2023-04-07T01:54:36.565Z,14.98
2023-04-07T01:55:36.574Z,14.98
2023-04-07T01:56:36.589Z,15.00
2023-04-07T01:57:36.587Z,15.00
2023-04-07T01:58:36.596Z,15.01
2023-04-07T01:59:36.633Z,15.01
2023-04-07T02:00:36.667Z,15.02
2023-04-07T02:01:36.793Z,15.01
2023-04-07T02:02:36.808Z,15.01
2023-04-07T02:03:36.863Z,15.03
2023-04-07T02:04:36.744Z,15.02
2023-04-07T02:05:36.771Z,15.04
2023-04-07T02:06:36.779Z,15.05
2023-04-07T02:07:36.823Z,15.05
2023-04-07T02:08:36.836Z,15.06
2023-04-07T02:09:36.860Z,15.07
2023-04-07T02:10:36.910Z,15.05
2023-04-07T02:11:36.917Z,15.05
2023-04-07T02:12:36.922Z,15.09
2023-04-07T02:13:36.969Z,15.07
2023-04-07T02:14:36.963Z,15.08
2023-04-07T02:15:36.979Z,15.07
2023-04-07T02:16:37.072Z,15.11
2023-04-07T02:17:37.037Z,15.11
2023-04-07T02:18:37.048Z,15.10
2023-04-07T02:19:37.124Z,15.12
2023-04-07T02:20:37.120Z,15.14
2023-04-07T02:21:37.114Z,15.10
2023-04-07T02:22:37.131Z,15.16
2023-04-07T02:23:37.148Z,15.16
2023-04-07T02:24:37.184Z,15.14
2023-04-07T02:25:37.259Z,15.14
2023-04-07T02:26:37.250Z,15.13
2023-04-07T02:27:37.287Z,15.18
2023-04-07T02:28:37.282Z,15.17
2023-04-07T02:29:37.316Z,15.20
2023-04-07T02:30:37.378Z,15.19
2023-04-07T02:31:37.403Z,15.20
2023-04-07T02:32:37.439Z,15.20
2023-04-07T02:33:37.618Z,15.19
2023-04-07T02:34:37.675Z,15.21
2023-04-07T02:35:37.880Z,15.20
2023-04-07T02:36:38.134Z,15.20
2023-04-07T02:37:38.080Z,15.21
2023-04-07T02:38:38.098Z,15.22
2023-04-07T02:39:38.093Z,15.22
2023-04-07T02:40:38.131Z,15.21
2023-04-07T02:41:38.116Z,15.21
2023-04-07T02:42:38.163Z,15.21
2023-04-07T02:43:38.211Z,15.22
2023-04-07T02:44:38.238Z,15.23
2023-04-07T02:45:38.319Z,15.23
2023-04-07T02:46:38.289Z,15.23
2023-04-07T02:47:38.320Z,15.22
2023-04-07T02:48:38.308Z,15.21
2023-04-07T02:49:38.317Z,15.20
2023-04-07T02:50:38.318Z,15.21
2023-04-07T02:51:38.348Z,15.24
2023-04-07T02:52:38.363Z,15.23
2023-04-07T02:53:38.397Z,15.24
2023-04-07T02:54:38.394Z,15.22
2023-04-07T02:55:38.435Z,15.24
2023-04-07T02:56:38.410Z,15.26
2023-04-07T02:57:38.435Z,15.25
2023-04-07T02:58:38.439Z,15.25
2023-04-07T02:59:38.488Z,15.27
2023-04-07T03:00:38.481Z,15.27
2023-04-07T03:01:38.550Z,15.26
2023-04-07T03:02:38.675Z,15.26
2023-04-07T03:03:38.535Z,15.26
2023-04-07T03:04:38.550Z,15.28
2023-04-07T03:05:38.550Z,15.27
2023-04-07T03:06:38.586Z,15.28
2023-04-07T03:07:38.589Z,15.27
2023-04-07T03:08:38.591Z,15.28
2023-04-07T03:09:38.641Z,15.28
2023-04-07T03:10:38.677Z,15.29
2023-04-07T03:11:38.679Z,15.28
2023-04-07T03:12:38.709Z,15.29
2023-04-07T03:13:38.731Z,15.28
2023-04-07T03:14:38.737Z,15.27
2023-04-07T03:15:38.749Z,15.28
2023-04-07T03:16:38.795Z,15.27
2023-04-07T03:17:38.833Z,15.27
2023-04-07T03:18:38.834Z,15.28
2023-04-07T03:19:38.840Z,15.27
2023-04-07T03:20:38.867Z,15.29
2023-04-07T03:21:38.905Z,15.29
2023-04-07T03:22:38.867Z,15.30
2023-04-07T03:23:38.927Z,15.27
2023-04-07T03:24:38.937Z,15.31
2023-04-07T03:25:38.910Z,15.27
2023-04-07T03:26:38.923Z,15.29
2023-04-07T03:27:38.931Z,15.29
2023-04-07T03:28:38.956Z,15.27
2023-04-07T03:29:38.982Z,15.28
2023-04-07T03:30:39.059Z,15.28
2023-04-07T03:31:39.016Z,15.30
2023-04-07T03:32:39.074Z,15.28
2023-04-07T03:33:39.049Z,15.29
2023-04-07T03:34:39.112Z,15.27
2023-04-07T03:35:39.110Z,15.30
2023-04-07T03:36:39.088Z,15.30
2023-04-07T03:37:39.121Z,15.32
2023-04-07T03:38:39.108Z,15.31
2023-04-07T03:39:39.153Z,15.33
2023-04-07T03:40:39.158Z,15.31
2023-04-07T03:41:39.172Z,15.31
2023-04-07T03:42:39.166Z,15.33
2023-04-07T03:43:39.193Z,15.32
2023-04-07T03:44:39.202Z,15.32
2023-04-07T03:45:39.204Z,15.33
2023-04-07T03:46:39.304Z,15.33
2023-04-07T03:47:39.287Z,15.34
2023-04-07T03:48:39.279Z,15.34
2023-04-07T03:49:39.295Z,15.39
2023-04-07T03:50:39.296Z,15.37
2023-04-07T03:51:39.339Z,15.39
2023-04-07T03:52:39.354Z,15.35
2023-04-07T03:53:39.407Z,15.39
2023-04-07T03:54:39.384Z,15.42
2023-04-07T03:55:39.404Z,15.43
2023-04-07T03:56:39.432Z,15.43
2023-04-07T03:57:39.421Z,15.41
2023-04-07T03:58:39.435Z,15.44
2023-04-07T03:59:39.469Z,15.39
2023-04-07T04:00:39.466Z,15.39
2023-04-07T04:01:39.506Z,15.40
2023-04-07T04:02:39.700Z,15.40
2023-04-07T04:03:40.009Z,15.43
2023-04-07T04:04:40.001Z,15.42
2023-04-07T04:05:40.098Z,15.42
2023-04-07T04:06:40.252Z,15.41
2023-04-07T04:07:40.398Z,15.43
2023-04-07T04:08:40.572Z,15.46
2023-04-07T04:09:40.752Z,15.49
2023-04-07T04:10:40.959Z,15.47
2023-04-07T04:11:41.095Z,15.49
2023-04-07T04:12:41.242Z,15.49
2023-04-07T04:13:41.490Z,15.50
2023-04-07T04:14:41.695Z,15.49
2023-04-07T04:15:41.804Z,15.52
2023-04-07T04:16:41.965Z,15.52
2023-04-07T04:17:42.022Z,15.52
2023-04-07T04:18:41.928Z,15.52
2023-04-07T04:19:41.925Z,15.50
2023-04-07T04:20:41.912Z,15.49
2023-04-07T04:21:41.902Z,15.49
2023-04-07T04:22:41.901Z,15.52
2023-04-07T04:23:41.885Z,15.52
2023-04-07T04:24:41.902Z,15.53
2023-04-07T04:25:41.899Z,15.51
2023-04-07T04:26:41.894Z,15.51
2023-04-07T04:27:41.876Z,15.52
2023-04-07T04:28:41.875Z,15.52
2023-04-07T04:29:41.850Z,15.53
2023-04-07T04:30:41.862Z,15.55
2023-04-07T04:31:41.855Z,15.56
2023-04-07T04:32:41.861Z,15.52
2023-04-07T04:33:41.832Z,15.56
2023-04-07T04:34:41.830Z,15.56
2023-04-07T04:35:41.803Z,15.54
2023-04-07T04:36:41.870Z,15.54
2023-04-07T04:37:41.789Z,15.55
2023-04-07T04:38:41.778Z,15.58
2023-04-07T04:39:41.809Z,15.56
2023-04-07T04:40:41.783Z,15.57
2023-04-07T04:41:41.778Z,15.55
2023-04-07T04:42:41.797Z,15.58
2023-04-07T04:43:42.470Z,15.57
2023-04-07T04:44:41.783Z,15.59
2023-04-07T04:45:41.750Z,15.58
2023-04-07T04:46:41.790Z,15.57
2023-04-07T04:47:41.752Z,15.59
2023-04-07T04:48:41.719Z,15.57
2023-04-07T04:49:41.730Z,15.58
2023-04-07T04:50:41.694Z,15.58
2023-04-07T04:51:41.725Z,15.59
2023-04-07T04:52:41.694Z,15.59
2023-04-07T04:53:41.711Z,15.61
2023-04-07T04:54:41.694Z,15.59
2023-04-07T04:55:41.672Z,15.61
2023-04-07T04:56:41.674Z,15.60
2023-04-07T04:57:41.643Z,15.60
2023-04-07T04:58:41.656Z,15.62
2023-04-07T04:59:41.653Z,15.59
2023-04-07T05:00:41.662Z,15.60
2023-04-07T05:01:41.684Z,15.59
2023-04-07T05:02:41.770Z,15.60
2023-04-07T05:03:41.736Z,15.60
2023-04-07T05:04:41.689Z,15.61
2023-04-07T05:05:41.589Z,15.60
2023-04-07T05:06:41.579Z,15.61
2023-04-07T05:07:41.597Z,15.61
2023-04-07T05:08:41.579Z,15.62
2023-04-07T05:09:41.580Z,15.61
2023-04-07T05:10:41.563Z,15.61
2023-04-07T05:11:41.560Z,15.62
2023-04-07T05:12:41.532Z,15.60
2023-04-07T05:13:41.552Z,15.62
2023-04-07T05:14:41.583Z,15.61
2023-04-07T05:15:41.762Z,15.62
2023-04-07T05:16:42.091Z,15.62
2023-04-07T05:17:42.244Z,15.63
2023-04-07T05:18:42.420Z,15.62
2023-04-07T05:19:42.607Z,15.66
2023-04-07T05:20:42.804Z,15.65
2023-04-07T05:21:43.006Z,15.64
2023-04-07T05:22:43.174Z,15.62
2023-04-07T05:23:43.273Z,15.63
2023-04-07T05:24:43.449Z,15.63
2023-04-07T05:25:43.732Z,15.63
2023-04-07T05:26:43.803Z,15.63
2023-04-07T05:27:44.076Z,15.64
2023-04-07T05:28:44.138Z,15.63
2023-04-07T05:29:44.416Z,15.64
2023-04-07T05:30:44.615Z,15.63
2023-04-07T05:31:44.855Z,15.64
2023-04-07T05:32:45.048Z,15.63
2023-04-07T05:33:45.188Z,15.64
2023-04-07T05:34:45.385Z,15.66
2023-04-07T05:35:45.502Z,15.65
2023-04-07T05:36:45.712Z,15.63
2023-04-07T05:37:45.845Z,15.66
2023-04-07T05:38:46.075Z,15.66
2023-04-07T05:39:46.316Z,15.67
2023-04-07T05:40:46.535Z,15.65
2023-04-07T05:41:46.713Z,15.67
2023-04-07T05:42:46.943Z,15.65
2023-04-07T05:43:47.156Z,15.65
2023-04-07T05:44:47.375Z,15.65
2023-04-07T05:45:47.656Z,15.66
2023-04-07T05:46:47.823Z,15.66
2023-04-07T05:47:47.935Z,15.66
2023-04-07T05:48:48.107Z,15.66
2023-04-07T05:49:48.400Z,15.67
2023-04-07T05:50:48.617Z,15.65
2023-04-07T05:51:49.361Z,15.66
2023-04-07T05:52:48.792Z,15.67
2023-04-07T05:53:48.799Z,15.66
2023-04-07T05:54:48.781Z,15.66
2023-04-07T05:55:48.796Z,15.66
2023-04-07T05:56:48.777Z,15.66
2023-04-07T05:57:48.789Z,15.68
2023-04-07T05:58:48.763Z,15.67
2023-04-07T05:59:48.762Z,15.65
2023-04-07T06:00:48.764Z,15.67
2023-04-07T06:01:48.823Z,15.66
2023-04-07T06:02:48.950Z,15.66
2023-04-07T06:03:49.014Z,15.66
2023-04-07T06:04:48.863Z,15.66
2023-04-07T06:05:48.851Z,15.65
2023-04-07T06:06:48.899Z,15.67
2023-04-07T06:07:48.934Z,15.66
2023-04-07T06:08:48.973Z,15.66
2023-04-07T06:09:48.959Z,15.67
2023-04-07T06:10:48.988Z,15.65
2023-04-07T06:11:49.020Z,15.67
2023-04-07T06:12:49.113Z,15.68
2023-04-07T06:13:49.242Z,15.67
2023-04-07T06:14:49.109Z,15.67
2023-04-07T06:15:49.144Z,15.67
2023-04-07T06:16:49.230Z,15.66
2023-04-07T06:17:49.333Z,15.67
2023-04-07T06:18:49.324Z,15.65
2023-04-07T06:19:49.354Z,15.67
2023-04-07T06:20:49.419Z,15.67
2023-04-07T06:21:49.411Z,15.65
2023-04-07T06:22:49.468Z,15.66
2023-04-07T06:23:49.665Z,15.67
2023-04-07T06:24:49.546Z,15.66
2023-04-07T06:25:49.557Z,15.65
2023-04-07T06:26:49.589Z,15.67
2023-04-07T06:27:49.621Z,15.66
2023-04-07T06:28:49.662Z,15.66
2023-04-07T06:29:49.745Z,15.65
2023-04-07T06:30:49.762Z,15.66
2023-04-07T06:31:49.784Z,15.64
2023-04-07T06:32:49.892Z,15.65
2023-04-07T06:33:50.190Z,15.66
2023-04-07T06:34:49.895Z,15.64
2023-04-07T06:35:49.935Z,15.65
2023-04-07T06:36:50.001Z,15.65
2023-04-07T06:37:50.041Z,15.66
2023-04-07T06:38:50.131Z,15.63
2023-04-07T06:39:50.101Z,15.65
2023-04-07T06:40:50.145Z,15.65
2023-04-07T06:41:50.178Z,15.64
2023-04-07T06:42:50.271Z,15.64
2023-04-07T06:43:50.395Z,15.65
2023-04-07T06:44:50.359Z,15.64
2023-04-07T06:45:50.448Z,15.64
2023-04-07T06:46:50.477Z,15.65
2023-04-07T06:47:50.566Z,15.64
2023-04-07T06:48:50.612Z,15.66
2023-04-07T06:49:50.661Z,15.63
2023-04-07T06:50:50.744Z,15.63
2023-04-07T06:51:50.776Z,15.65
2023-04-07T06:52:50.843Z,15.64
2023-04-07T06:53:50.898Z,15.64
2023-04-07T06:54:50.924Z,15.62
2023-04-07T06:55:51.003Z,15.63
2023-04-07T06:56:52.256Z,15.64
2023-04-07T06:57:51.116Z,15.65
2023-04-07T06:58:51.175Z,15.64
2023-04-07T06:59:51.190Z,15.62
2023-04-07T07:00:51.235Z,15.66
2023-04-07T07:01:51.367Z,15.63
2023-04-07T07:02:51.446Z,15.63
2023-04-07T07:03:51.941Z,15.64
2023-04-07T07:04:51.421Z,15.63
2023-04-07T07:05:51.497Z,15.64
2023-04-07T07:06:51.558Z,15.64
2023-04-07T07:07:51.570Z,15.64
2023-04-07T07:08:51.629Z,15.61
2023-04-07T07:09:51.674Z,15.61
2023-04-07T07:10:51.726Z,15.59
2023-04-07T07:11:51.784Z,15.60
2023-04-07T07:12:51.816Z,15.58
2023-04-07T07:13:51.881Z,15.58
2023-04-07T07:14:51.911Z,15.56
2023-04-07T07:15:52.000Z,15.58
2023-04-07T07:16:51.997Z,15.58
2023-04-07T07:17:52.090Z,15.57
2023-04-07T07:18:52.109Z,15.62
2023-04-07T07:19:52.135Z,15.58
2023-04-07T07:20:52.203Z,15.59
2023-04-07T07:21:52.216Z,15.62
2023-04-07T07:22:52.254Z,15.62
2023-04-07T07:23:52.304Z,15.62
2023-04-07T07:24:52.336Z,15.64
2023-04-07T07:25:52.374Z,15.66
2023-04-07T07:26:52.399Z,15.65
2023-04-07T07:27:52.460Z,15.65
2023-04-07T07:28:52.501Z,15.63
2023-04-07T07:29:52.544Z,15.63
2023-04-07T07:30:52.635Z,15.63
2023-04-07T07:31:54.429Z,15.62
2023-04-07T07:32:52.836Z,15.61
2023-04-07T07:33:52.699Z,15.56
2023-04-07T07:34:52.732Z,15.52
2023-04-07T07:35:52.788Z,15.49
2023-04-07T07:36:52.900Z,15.50
2023-04-07T07:37:52.773Z,15.48
2023-04-07T07:38:52.781Z,15.49
2023-04-07T07:39:52.770Z,15.50
2023-04-07T07:40:52.785Z,15.54
2023-04-07T07:41:52.794Z,15.55
2023-04-07T07:42:52.817Z,15.58
2023-04-07T07:43:52.779Z,15.58
2023-04-07T07:44:52.800Z,15.58
2023-04-07T07:45:52.792Z,15.60
2023-04-07T07:46:52.906Z,15.61
2023-04-07T07:47:52.853Z,15.61
2023-04-07T07:48:52.810Z,15.61
2023-04-07T07:49:52.808Z,15.62
2023-04-07T07:50:53.043Z,15.62
2023-04-07T07:51:52.846Z,15.60
2023-04-07T07:52:52.858Z,15.58
2023-04-07T07:53:52.859Z,15.56
2023-04-07T07:54:52.867Z,15.57
2023-04-07T07:55:52.882Z,15.56
2023-04-07T07:56:52.890Z,15.54
2023-04-07T07:57:52.916Z,15.54
2023-04-07T07:58:52.966Z,15.54
2023-04-07T07:59:53.028Z,15.56
2023-04-07T08:00:53.082Z,15.57
2023-04-07T08:01:53.177Z,15.58
2023-04-07T08:02:53.214Z,15.57
2023-04-07T08:03:53.706Z,15.56
2023-04-07T08:04:53.332Z,15.53
2023-04-07T08:05:53.323Z,15.52
2023-04-07T08:06:53.370Z,15.49
2023-04-07T08:07:54.258Z,15.46
2023-04-07T08:08:53.467Z,15.47
2023-04-07T08:09:53.514Z,15.46
2023-04-07T08:10:53.611Z,15.44
2023-04-07T08:11:53.651Z,15.45
2023-04-07T08:12:53.693Z,15.41
2023-04-07T08:13:53.766Z,15.40
2023-04-07T08:14:53.807Z,15.39
2023-04-07T08:15:53.926Z,15.37
2023-04-07T08:16:53.917Z,15.36
2023-04-07T08:17:55.998Z,15.33
2023-04-07T08:18:54.024Z,15.33
2023-04-07T08:19:54.026Z,15.30
2023-04-07T08:20:54.076Z,15.29
2023-04-07T08:21:54.117Z,15.29
2023-04-07T08:22:54.163Z,15.36
2023-04-07T08:23:54.205Z,15.40
2023-04-07T08:24:54.347Z,15.45
2023-04-07T08:25:54.504Z,15.47
2023-04-07T08:26:54.703Z,15.50
2023-04-07T08:27:54.862Z,15.52
2023-04-07T08:28:55.058Z,15.54
2023-04-07T08:29:55.217Z,15.55
2023-04-07T08:30:55.369Z,15.58
2023-04-07T08:31:55.624Z,15.59
2023-04-07T08:32:55.752Z,15.60
2023-04-07T08:33:55.942Z,15.63
2023-04-07T08:34:56.119Z,15.64
2023-04-07T08:35:56.318Z,15.66
2023-04-07T08:36:56.468Z,15.69
2023-04-07T08:37:56.614Z,15.71
2023-04-07T08:38:56.808Z,15.68
2023-04-07T08:39:56.965Z,15.70
2023-04-07T08:40:57.129Z,15.72
2023-04-07T08:41:57.331Z,15.74
2023-04-07T08:42:57.530Z,15.74
2023-04-07T08:43:57.705Z,15.74
2023-04-07T08:44:58.666Z,15.75
2023-04-07T08:45:57.920Z,15.76
2023-04-07T08:46:58.037Z,15.76
2023-04-07T08:47:58.063Z,15.75
2023-04-07T08:48:58.059Z,15.75
2023-04-07T08:49:58.098Z,15.75
2023-04-07T08:50:58.141Z,15.76
2023-04-07T08:51:58.211Z,15.74
2023-04-07T08:52:58.256Z,15.76
2023-04-07T08:53:58.342Z,15.75
2023-04-07T08:54:58.392Z,15.76
2023-04-07T08:55:58.423Z,15.76
2023-04-07T08:56:58.454Z,15.77
2023-04-07T08:58:00.122Z,15.78
2023-04-07T08:58:58.472Z,15.78
2023-04-07T08:59:58.465Z,15.80
2023-04-07T09:00:58.492Z,15.77
2023-04-07T09:01:58.467Z,15.78
2023-04-07T09:02:58.466Z,15.76
2023-04-07T09:03:58.434Z,15.77
2023-04-07T09:04:58.426Z,15.78
2023-04-07T09:05:58.428Z,15.77
2023-04-07T09:06:58.423Z,15.76
2023-04-07T09:07:58.390Z,15.78
2023-04-07T09:08:58.397Z,15.74
2023-04-07T09:09:58.404Z,15.76
2023-04-07T09:10:58.392Z,15.78
2023-04-07T09:11:58.387Z,15.77
2023-04-07T09:12:58.352Z,15.77
2023-04-07T09:13:58.359Z,15.74
2023-04-07T09:14:58.349Z,15.75
2023-04-07T09:15:58.349Z,15.76
2023-04-07T09:16:58.375Z,15.78
2023-04-07T09:17:58.353Z,15.80
2023-04-07T09:18:58.313Z,15.78
2023-04-07T09:19:58.301Z,15.81
2023-04-07T09:20:58.316Z,15.80
2023-04-07T09:21:58.318Z,15.80
2023-04-07T09:22:58.283Z,15.77
2023-04-07T09:23:58.282Z,15.81
2023-04-07T09:24:58.280Z,15.80
2023-04-07T09:25:58.259Z,15.79
2023-04-07T09:26:58.274Z,15.80
2023-04-07T09:27:58.250Z,15.79
2023-04-07T09:28:58.244Z,15.77
2023-04-07T09:29:58.234Z,15.76
2023-04-07T09:30:58.237Z,15.79
2023-04-07T09:31:58.241Z,15.76
2023-04-07T09:32:58.211Z,15.78
2023-04-07T09:33:58.200Z,15.79
2023-04-07T09:34:58.219Z,15.76
2023-04-07T09:35:58.264Z,15.77
2023-04-07T09:36:58.222Z,15.79
2023-04-07T09:37:58.191Z,15.78
2023-04-07T09:38:58.186Z,15.79
2023-04-07T09:39:58.182Z,15.77
2023-04-07T09:40:58.159Z,15.76
2023-04-07T09:41:58.159Z,15.78
2023-04-07T09:42:58.148Z,15.77
2023-04-07T09:43:58.168Z,15.76
2023-04-07T09:44:58.133Z,15.77
2023-04-07T09:45:58.152Z,15.78
2023-04-07T09:46:58.131Z,15.77
2023-04-07T09:47:58.177Z,15.77
2023-04-07T09:48:58.139Z,15.79
2023-04-07T09:49:58.100Z,15.76
2023-04-07T09:50:58.099Z,15.77
2023-04-07T09:51:58.108Z,15.76
2023-04-07T09:52:58.084Z,15.77
2023-04-07T09:53:58.091Z,15.77
2023-04-07T09:54:58.096Z,15.78
2023-04-07T09:55:58.066Z,15.78
2023-04-07T09:56:58.078Z,15.78
2023-04-07T09:57:58.075Z,15.78
2023-04-07T09:58:58.056Z,15.77
2023-04-07T09:59:58.087Z,15.78
2023-04-07T10:00:58.078Z,15.76
2023-04-07T10:01:58.194Z,15.77
2023-04-07T10:02:58.326Z,15.78
2023-04-07T10:03:58.102Z,15.78
2023-04-07T10:04:58.010Z,15.77
2023-04-07T10:05:58.014Z,15.77
2023-04-07T10:06:57.999Z,15.79
2023-04-07T10:07:57.996Z,15.79
2023-04-07T10:08:57.993Z,15.78
2023-04-07T10:09:58.060Z,15.78
2023-04-07T10:10:57.981Z,15.80
2023-04-07T10:11:57.981Z,15.79
2023-04-07T10:12:57.960Z,15.79
2023-04-07T10:13:57.954Z,15.79
2023-04-07T10:14:57.946Z,15.81
2023-04-07T10:15:57.981Z,15.81
2023-04-07T10:16:58.106Z,15.81
2023-04-07T10:17:58.020Z,15.81
2023-04-07T10:18:57.965Z,15.83
2023-04-07T10:19:58.057Z,15.81
2023-04-07T10:20:57.985Z,15.83
2023-04-07T10:21:57.980Z,15.84
2023-04-07T10:22:57.981Z,15.83
2023-04-07T10:23:58.007Z,15.85
2023-04-07T10:24:58.006Z,15.86
2023-04-07T10:25:58.035Z,15.85
2023-04-07T10:26:58.000Z,15.87
2023-04-07T10:27:58.039Z,15.85
2023-04-07T10:28:58.024Z,15.86
2023-04-07T10:29:58.071Z,15.89
2023-04-07T10:30:58.095Z,15.88
2023-04-07T10:31:58.062Z,15.86
2023-04-07T10:32:58.091Z,15.82
2023-04-07T10:33:58.069Z,15.84
2023-04-07T10:34:58.068Z,15.82
2023-04-07T10:35:59.655Z,15.82
2023-04-07T10:36:58.073Z,15.84
2023-04-07T10:37:58.112Z,15.85
2023-04-07T10:38:58.060Z,15.82
2023-04-07T10:39:58.085Z,15.83
2023-04-07T10:40:58.097Z,15.83
2023-04-07T10:41:58.073Z,15.81
2023-04-07T10:42:58.066Z,15.81
2023-04-07T10:43:58.061Z,15.81
2023-04-07T10:44:58.104Z,15.81
2023-04-07T10:45:58.289Z,15.82
2023-04-07T10:46:58.422Z,15.83
2023-04-07T10:47:58.684Z,15.83
2023-04-07T10:48:58.667Z,15.85
2023-04-07T10:49:58.690Z,15.85
2023-04-07T10:50:58.668Z,15.86
2023-04-07T10:51:58.702Z,15.84
2023-04-07T10:52:58.692Z,15.88
2023-04-07T10:53:58.832Z,15.85
2023-04-07T10:54:58.927Z,15.86
2023-04-07T10:55:58.926Z,15.86
2023-04-07T10:56:58.969Z,15.85
2023-04-07T10:57:58.955Z,15.87
2023-04-07T10:58:58.953Z,15.85
2023-04-07T10:59:58.976Z,15.86
2023-04-07T11:00:59.001Z,15.88
2023-04-07T11:01:59.066Z,15.85
2023-04-07T11:02:59.228Z,15.85
2023-04-07T11:03:59.187Z,15.82
2023-04-07T11:04:59.008Z,15.82
2023-04-07T11:05:59.006Z,15.81
2023-04-07T11:06:59.008Z,15.80
2023-04-07T11:07:59.018Z,15.79
2023-04-07T11:08:59.021Z,15.79
2023-04-07T11:09:59.030Z,15.79
2023-04-07T11:10:59.054Z,15.78
2023-04-07T11:11:59.090Z,15.76
2023-04-07T11:12:59.185Z,15.72
2023-04-07T11:13:59.194Z,15.72
2023-04-07T11:14:59.267Z,15.72
2023-04-07T11:15:59.338Z,15.71
2023-04-07T11:16:59.370Z,15.70
2023-04-07T11:17:59.477Z,15.68
2023-04-07T11:18:59.472Z,15.65
2023-04-07T11:19:59.521Z,15.66
2023-04-07T11:20:59.558Z,15.64
2023-04-07T11:21:59.597Z,15.60
2023-04-07T11:22:59.734Z,15.68
2023-04-07T11:23:59.848Z,15.71
2023-04-07T11:25:00.134Z,15.77
2023-04-07T11:26:00.225Z,15.79
2023-04-07T11:27:00.248Z,15.80
2023-04-07T11:28:00.289Z,15.80
2023-04-07T11:29:00.365Z,15.81
2023-04-07T11:30:00.391Z,15.83
2023-04-07T11:31:00.585Z,15.84
2023-04-07T11:32:02.102Z,15.83
2023-04-07T11:33:00.674Z,15.85
2023-04-07T11:34:00.645Z,15.85
2023-04-07T11:35:00.714Z,15.87
2023-04-07T11:36:00.824Z,15.88
2023-04-07T11:37:00.795Z,15.89
2023-04-07T11:38:00.873Z,15.88
2023-04-07T11:39:00.899Z,15.89
2023-04-07T11:40:00.901Z,15.87
2023-04-07T11:41:00.918Z,15.91
2023-04-07T11:42:00.939Z,15.90
2023-04-07T11:43:00.968Z,15.91
2023-04-07T11:44:00.981Z,15.91
2023-04-07T11:45:01.026Z,15.90
2023-04-07T11:46:01.065Z,15.89
2023-04-07T11:47:01.128Z,15.91
2023-04-07T11:48:01.112Z,15.90
2023-04-07T11:49:01.109Z,15.94
2023-04-07T11:50:01.116Z,15.92
2023-04-07T11:51:01.135Z,15.90
2023-04-07T11:52:01.131Z,15.91
2023-04-07T11:53:01.170Z,15.92
2023-04-07T11:54:01.163Z,15.92
2023-04-07T11:55:01.161Z,15.93
2023-04-07T11:56:01.185Z,15.90
2023-04-07T11:57:01.178Z,15.87
2023-04-07T11:58:01.178Z,15.88
2023-04-07T11:59:01.183Z,15.91
2023-04-07T12:00:01.190Z,15.92
2023-04-07T12:01:01.199Z,15.91
2023-04-07T12:02:01.226Z,15.90
2023-04-07T12:03:01.325Z,15.94
2023-04-07T12:04:01.561Z,15.92
2023-04-07T12:05:01.244Z,15.93
2023-04-07T12:06:01.182Z,15.93
2023-04-07T12:07:01.178Z,15.95
2023-04-07T12:08:01.205Z,15.95
2023-04-07T12:09:01.201Z,15.94
2023-04-07T12:10:01.198Z,15.91
2023-04-07T12:11:01.207Z,15.94
2023-04-07T12:12:01.238Z,15.90
2023-04-07T12:13:01.219Z,15.93
2023-04-07T12:14:01.229Z,15.91
2023-04-07T12:15:01.246Z,15.90
2023-04-07T12:16:01.268Z,15.90
2023-04-07T12:17:01.213Z,15.86
2023-04-07T12:18:01.346Z,15.88
2023-04-07T12:19:01.234Z,15.86
2023-04-07T12:20:01.233Z,15.87
2023-04-07T12:21:01.253Z,15.82
2023-04-07T12:22:01.241Z,15.84
2023-04-07T12:23:01.244Z,15.86
2023-04-07T12:24:01.268Z,15.86
2023-04-07T12:25:01.236Z,15.85
2023-04-07T12:26:01.310Z,15.83
2023-04-07T12:27:01.292Z,15.80
2023-04-07T12:28:01.280Z,15.82
2023-04-07T12:29:01.296Z,15.77
2023-04-07T12:30:01.318Z,15.81
2023-04-07T12:31:01.332Z,15.81
2023-04-07T12:32:01.397Z,15.81
2023-04-07T12:33:01.464Z,15.82
2023-04-07T12:34:01.621Z,15.83
2023-04-07T12:35:01.521Z,15.78
2023-04-07T12:36:01.607Z,15.80
2023-04-07T12:37:01.557Z,15.76
2023-04-07T12:38:01.573Z,15.80
2023-04-07T12:39:01.585Z,15.81
2023-04-07T12:40:01.661Z,15.81
2023-04-07T12:41:01.665Z,15.81
2023-04-07T12:42:01.658Z,15.77
2023-04-07T12:43:01.668Z,15.78
2023-04-07T12:44:01.688Z,15.79
2023-04-07T12:45:01.697Z,15.75
2023-04-07T12:46:01.799Z,15.78
2023-04-07T12:47:01.721Z,15.75
2023-04-07T12:48:01.801Z,15.72
2023-04-07T12:49:01.757Z,15.73
2023-04-07T12:50:01.772Z,15.73
2023-04-07T12:51:01.773Z,15.70
2023-04-07T12:52:01.817Z,15.72
2023-04-07T12:53:01.865Z,15.65